createdAt,value
2022-12-01T00:01:19.914Z,101582.84
2022-12-01T00:03:47.132Z,101584.63
2022-12-01T00:06:17.298Z,101567.31
2022-12-01T00:09:06.681Z,101579.28
2022-12-01T00:11:35.670Z,101587.16
2022-12-01T00:14:03.092Z,101600.47
2022-12-01T00:16:30.919Z,101581.22
2022-12-01T00:18:58.118Z,101577.84
2022-12-01T00:21:26.665Z,101577.03
2022-12-01T00:23:56.740Z,101566.94
2022-12-01T00:26:25.519Z,101570.09
2022-12-01T00:28:54.294Z,101567.31
2022-12-01T00:31:21.664Z,101578.81
2022-12-01T00:33:50.062Z,101570.34
2022-12-01T00:36:17.709Z,101573.22
2022-12-01T00:38:44.863Z,101566.59
2022-12-01T00:41:11.854Z,101565.94
2022-12-01T00:43:39.958Z,101564.16
2022-12-01T00:46:07.372Z,101578.72
2022-12-01T00:48:34.731Z,101558.81
2022-12-01T00:51:02.088Z,101578.56
2022-12-01T00:53:29.141Z,101570.69
2022-12-01T00:55:56.350Z,101567.13
2022-12-01T00:58:24.370Z,101588.56
2022-12-01T01:01:00.910Z,101579.31
2022-12-01T01:03:28.953Z,101582.53
2022-12-01T01:05:56.227Z,101588.91
2022-12-01T01:08:23.191Z,101577.78
2022-12-01T01:10:50.957Z,101568.56
2022-12-01T01:13:17.961Z,101579.06
2022-12-01T01:15:45.696Z,101596.84
2022-12-01T01:18:12.801Z,101575.00
2022-12-01T01:20:39.862Z,101564.47
2022-12-01T01:23:07.216Z,101567.78
2022-12-01T01:25:34.711Z,101563.09
2022-12-01T01:28:03.014Z,101552.56
2022-12-01T01:30:30.063Z,101561.06
2022-12-01T01:32:57.057Z,101557.84
2022-12-01T01:35:26.031Z,101573.13
2022-12-01T01:37:53.813Z,101541.66
2022-12-01T01:40:20.912Z,101561.00
2022-12-01T01:42:47.983Z,101574.13
2022-12-01T01:45:33.227Z,101567.88
2022-12-01T01:48:00.977Z,101564.63
2022-12-01T01:50:29.093Z,101559.38
2022-12-01T01:53:03.200Z,101555.75
2022-12-01T01:55:33.944Z,101559.44
2022-12-01T01:58:03.029Z,101575.13
2022-12-01T02:00:30.376Z,101556.06
2022-12-01T02:03:00.253Z,101566.66
2022-12-01T02:05:32.922Z,101561.56
2022-12-01T02:08:02.396Z,101547.06
2022-12-01T02:10:45.099Z,101567.56
2022-12-01T02:13:20.237Z,101572.66
2022-12-01T02:16:04.306Z,101576.22
2022-12-01T02:19:03.507Z,101557.66
2022-12-01T02:21:55.361Z,101564.53
2022-12-01T02:24:34.534Z,101563.69
2022-12-01T02:27:12.982Z,101572.88
2022-12-01T02:29:58.538Z,101565.00
2022-12-01T02:32:53.832Z,101576.44
2022-12-01T02:35:45.116Z,101561.59
2022-12-01T02:38:30.831Z,101550.56
2022-12-01T02:41:10.660Z,101574.81
2022-12-01T02:43:53.429Z,101563.97
2022-12-01T02:46:31.479Z,101547.94
2022-12-01T02:49:02.369Z,101556.09
2022-12-01T02:51:32.456Z,101576.09
2022-12-01T02:54:02.418Z,101562.28
2022-12-01T02:56:29.858Z,101567.38
2022-12-01T02:58:57.004Z,101549.63
2022-12-01T03:01:54.263Z,101556.19
2022-12-01T03:04:27.399Z,101548.31
2022-12-01T03:07:33.082Z,101547.69
2022-12-01T03:10:06.493Z,101546.59
2022-12-01T03:13:06.212Z,101550.59
2022-12-01T03:15:54.078Z,101532.44
2022-12-01T03:18:33.499Z,101549.66
2022-12-01T03:21:37.706Z,101559.22
2022-12-01T03:24:10.778Z,101537.13
2022-12-01T03:26:41.444Z,101573.22
2022-12-01T03:29:14.457Z,101531.09
2022-12-01T03:31:53.915Z,101543.03
2022-12-01T03:34:32.166Z,101548.97
2022-12-01T03:37:05.992Z,101547.69
2022-12-01T03:39:36.951Z,101554.16
2022-12-01T03:42:27.754Z,101543.91
2022-12-01T03:44:59.082Z,101544.66
2022-12-01T03:47:32.897Z,101552.38
2022-12-01T03:50:00.748Z,101565.16
2022-12-01T03:52:45.910Z,101550.59
2022-12-01T03:55:26.410Z,101535.00
2022-12-01T03:58:14.488Z,101554.66
2022-12-01T04:00:42.174Z,101545.84
2022-12-01T04:03:18.042Z,101549.22
2022-12-01T04:05:45.196Z,101544.31
2022-12-01T04:08:12.241Z,101545.84
2022-12-01T04:10:39.227Z,101533.97
2022-12-01T04:13:06.443Z,101537.63
2022-12-01T04:15:33.507Z,101548.72
2022-12-01T04:18:00.558Z,101552.13
2022-12-01T04:20:27.622Z,101543.91
2022-12-01T04:22:55.391Z,101549.81
2022-12-01T04:25:23.577Z,101544.81
2022-12-01T04:27:50.700Z,101546.78
2022-12-01T04:30:18.570Z,101515.53
2022-12-01T04:32:46.158Z,101550.56
2022-12-01T04:35:13.564Z,101554.97
2022-12-01T04:37:41.301Z,101524.88
2022-12-01T04:40:09.238Z,101544.22
2022-12-01T04:42:36.863Z,101580.25
2022-12-01T04:45:04.475Z,101558.13
2022-12-01T04:47:31.825Z,101560.34
2022-12-01T04:50:02.948Z,101554.56
2022-12-01T04:52:35.082Z,101549.22
2022-12-01T04:55:03.724Z,101533.56
2022-12-01T04:57:31.128Z,101548.91
2022-12-01T04:59:58.333Z,101554.69
2022-12-01T05:02:25.567Z,101554.69
2022-12-01T05:04:52.672Z,101548.84
2022-12-01T05:07:20.052Z,101573.00
2022-12-01T05:09:47.542Z,101578.59
2022-12-01T05:12:20.070Z,101573.69
2022-12-01T05:14:47.276Z,101572.66
2022-12-01T05:17:15.195Z,101556.56
2022-12-01T05:20:22.131Z,101565.88
2022-12-01T05:23:05.948Z,101534.75
2022-12-01T05:25:33.627Z,101563.56
2022-12-01T05:28:00.831Z,101566.81
2022-12-01T05:30:28.953Z,101568.91
2022-12-01T05:32:56.314Z,101551.22
2022-12-01T05:35:23.401Z,101544.34
2022-12-01T05:37:50.448Z,101559.69
2022-12-01T05:40:17.661Z,101566.47
2022-12-01T05:42:44.798Z,101548.50
2022-12-01T05:45:11.859Z,101567.22
2022-12-01T05:47:38.931Z,101573.06
2022-12-01T05:50:06.909Z,101601.59
2022-12-01T05:52:37.477Z,101593.72
2022-12-01T05:55:05.704Z,101584.72
2022-12-01T05:57:33.966Z,101586.06
2022-12-01T06:00:01.024Z,101585.22
2022-12-01T06:02:40.444Z,101585.13
2022-12-01T06:05:09.504Z,101589.19
2022-12-01T06:07:36.654Z,101598.41
2022-12-01T06:10:04.502Z,101606.31
2022-12-01T06:12:31.605Z,101587.97
2022-12-01T06:14:58.587Z,101600.97
2022-12-01T06:17:25.667Z,101616.88
2022-12-01T06:19:52.883Z,101604.41
2022-12-01T06:22:19.958Z,101616.63
2022-12-01T06:24:47.110Z,101610.44
2022-12-01T06:27:14.311Z,101598.28
2022-12-01T06:29:42.420Z,101594.91
2022-12-01T06:32:10.332Z,101599.22
2022-12-01T06:34:37.559Z,101603.47
2022-12-01T06:37:04.778Z,101604.84
2022-12-01T06:39:32.007Z,101610.06
2022-12-01T06:41:59.064Z,101601.69
2022-12-01T06:44:26.089Z,101605.06
2022-12-01T06:46:53.123Z,101605.75
2022-12-01T06:49:20.824Z,101605.66
2022-12-01T06:51:47.976Z,101574.97
2022-12-01T06:54:15.391Z,101574.13
2022-12-01T06:56:43.359Z,101599.22
2022-12-01T06:59:10.669Z,101610.91
2022-12-01T07:01:38.379Z,101585.16
2022-12-01T07:04:05.467Z,101598.28
2022-12-01T07:06:33.008Z,101602.16
2022-12-01T07:09:00.194Z,101594.25
2022-12-01T07:11:27.239Z,101595.00
2022-12-01T07:13:57.451Z,101594.00
2022-12-01T07:16:25.017Z,101591.56
2022-12-01T07:18:52.898Z,101595.06
2022-12-01T07:21:20.527Z,101591.00
2022-12-01T07:23:47.990Z,101584.41
2022-12-01T07:26:17.706Z,101578.59
2022-12-01T07:28:45.598Z,101595.44
2022-12-01T07:31:15.728Z,101593.84
2022-12-01T07:33:43.483Z,101600.16
2022-12-01T07:36:12.095Z,101612.84
2022-12-01T07:38:39.859Z,101585.66
2022-12-01T07:41:09.315Z,101601.34
2022-12-01T07:43:37.197Z,101599.72
2022-12-01T07:46:25.227Z,101592.50
2022-12-01T07:48:53.263Z,101579.22
2022-12-01T07:51:21.458Z,101614.13
2022-12-01T07:53:50.629Z,101621.75
2022-12-01T07:56:19.341Z,101594.31
2022-12-01T07:58:46.753Z,101612.00
2022-12-01T08:01:19.918Z,101595.00
2022-12-01T08:03:49.737Z,101611.19
2022-12-01T08:06:18.364Z,101604.81
2022-12-01T08:08:45.904Z,101594.25
2022-12-01T08:11:24.376Z,101599.88
2022-12-01T08:13:53.056Z,101611.00
2022-12-01T08:16:22.515Z,101607.19
2022-12-01T08:18:50.592Z,101599.28
2022-12-01T08:21:20.904Z,101602.56
2022-12-01T08:23:48.082Z,101606.56
2022-12-01T08:26:18.010Z,101601.06
2022-12-01T08:28:45.876Z,101608.91
2022-12-01T08:31:17.289Z,101615.78
2022-12-01T08:33:44.547Z,101618.50
2022-12-01T08:36:11.700Z,101605.41
2022-12-01T08:38:38.833Z,101594.00
2022-12-01T08:41:09.218Z,101585.31
2022-12-01T08:46:34.694Z,101627.81
2022-12-01T08:49:03.020Z,101595.16
2022-12-01T08:51:30.305Z,101573.91
2022-12-01T08:53:58.511Z,101596.00
2022-12-01T08:56:32.395Z,101601.72
2022-12-01T08:59:00.091Z,101581.72
2022-12-01T09:01:27.501Z,101588.00
2022-12-01T09:04:06.110Z,101587.03
2022-12-01T09:06:39.057Z,101566.19
2022-12-01T09:09:06.215Z,101595.38
2022-12-01T09:11:33.167Z,101561.28
2022-12-01T09:14:00.829Z,101586.84
2022-12-01T09:16:27.978Z,101555.91
2022-12-01T09:18:55.217Z,101563.88
2022-12-01T09:21:25.889Z,101573.31
2022-12-01T09:23:54.339Z,101562.69
2022-12-01T09:26:22.205Z,101573.31
2022-12-01T09:29:00.699Z,101577.06
2022-12-01T09:31:28.214Z,101560.94
2022-12-01T09:33:59.767Z,101560.56
2022-12-01T09:36:30.661Z,101559.63
2022-12-01T09:38:58.647Z,101576.59
2022-12-01T09:41:45.555Z,101562.91
2022-12-01T09:44:16.784Z,101569.66
2022-12-01T09:46:49.189Z,101560.38
2022-12-01T09:49:23.049Z,101565.78
2022-12-01T09:51:50.958Z,101572.94
2022-12-01T09:54:18.237Z,101571.13
2022-12-01T09:56:49.638Z,101557.50
2022-12-01T09:59:31.340Z,101574.88
2022-12-01T10:02:25.683Z,101578.00
2022-12-01T10:04:57.144Z,101571.97
2022-12-01T10:08:03.175Z,101573.72
2022-12-01T10:10:47.409Z,101581.44
2022-12-01T10:13:21.302Z,101586.03
2022-12-01T10:15:54.641Z,101571.81
2022-12-01T10:18:40.031Z,101570.47
2022-12-01T10:21:25.228Z,101577.94
2022-12-01T10:24:06.899Z,101558.75
2022-12-01T10:27:04.389Z,101559.75
2022-12-01T10:29:43.808Z,101564.09
2022-12-01T10:32:14.212Z,101562.16
2022-12-01T10:34:42.684Z,101545.84
2022-12-01T10:37:19.033Z,101554.19
2022-12-01T10:39:49.988Z,101559.38
2022-12-01T10:42:29.427Z,101550.66
2022-12-01T10:45:00.735Z,101550.66
2022-12-01T10:47:29.012Z,101558.16
2022-12-01T10:49:56.489Z,101539.69
2022-12-01T10:52:35.623Z,101555.72
2022-12-01T10:55:06.057Z,101565.88
2022-12-01T10:57:33.318Z,101550.56
2022-12-01T11:00:50.855Z,101557.78
2022-12-01T11:03:07.524Z,101535.94
2022-12-01T11:05:41.161Z,101559.34
2022-12-01T11:08:25.903Z,101549.66
2022-12-01T11:10:53.050Z,101543.88
2022-12-01T11:13:28.796Z,101546.28
2022-12-01T11:16:04.145Z,101541.59
2022-12-01T11:18:37.679Z,101548.81
2022-12-01T11:21:27.554Z,101549.44
2022-12-01T11:23:56.527Z,101547.13
2022-12-01T11:26:27.505Z,101552.34
2022-12-01T11:29:00.695Z,101548.63
2022-12-01T11:31:57.650Z,101554.19
2022-12-01T11:34:28.762Z,101553.34
2022-12-01T11:37:06.349Z,101546.84
2022-12-01T11:39:45.089Z,101535.25
2022-12-01T11:42:14.158Z,101542.25
2022-12-01T11:44:51.792Z,101534.16
2022-12-01T11:50:28.669Z,101534.66
2022-12-01T11:53:04.379Z,101534.53
2022-12-01T11:55:32.158Z,101540.19
2022-12-01T11:58:03.012Z,101547.31
2022-12-01T12:00:56.249Z,101520.78
2022-12-01T12:03:58.588Z,101529.09
2022-12-01T12:07:00.974Z,101532.34
2022-12-01T12:09:48.315Z,101546.69
2022-12-01T12:12:31.255Z,101535.00
2022-12-01T12:15:26.949Z,101540.06
2022-12-01T12:17:57.361Z,101544.06
2022-12-01T12:20:47.598Z,101542.97
2022-12-01T12:23:21.832Z,101552.22
2022-12-01T12:26:04.384Z,101550.03
2022-12-01T12:28:37.364Z,101551.72
2022-12-01T12:31:42.953Z,101549.91
2022-12-01T12:34:25.626Z,101542.19
2022-12-01T12:37:19.319Z,101545.31
2022-12-01T12:39:46.419Z,101544.78
2022-12-01T12:42:39.748Z,101551.28
2022-12-01T12:45:28.965Z,101549.97
2022-12-01T12:48:38.689Z,101556.34
2022-12-01T12:51:44.239Z,101545.13
2022-12-01T12:54:22.141Z,101542.81
2022-12-01T12:56:55.520Z,101535.66
2022-12-01T12:59:31.718Z,101536.00
2022-12-01T13:02:10.704Z,101541.50
2022-12-01T13:04:51.779Z,101517.81
2022-12-01T13:07:26.925Z,101540.59
2022-12-01T13:10:01.488Z,101532.47
2022-12-01T13:12:35.642Z,101555.13
2022-12-01T13:15:15.528Z,101534.63
2022-12-01T13:17:48.386Z,101527.69
2022-12-01T13:20:19.356Z,101550.22
2022-12-01T13:22:48.342Z,101519.25
2022-12-01T13:25:47.626Z,101534.44
2022-12-01T13:28:28.269Z,101544.31
2022-12-01T13:31:16.053Z,101540.69
2022-12-01T13:34:11.669Z,101538.91
2022-12-01T13:36:49.200Z,101539.97
2022-12-01T13:39:23.388Z,101534.78
2022-12-01T13:42:21.614Z,101530.56
2022-12-01T13:45:07.013Z,101537.78
2022-12-01T13:47:51.858Z,101545.50
2022-12-01T13:50:48.826Z,101536.72
2022-12-01T13:53:37.700Z,101542.13
2022-12-01T13:56:16.750Z,101530.78
2022-12-01T13:58:49.730Z,101543.19
2022-12-01T14:01:19.863Z,101529.09
2022-12-01T14:04:18.554Z,101536.31
2022-12-01T14:06:50.628Z,101528.72
2022-12-01T14:09:41.895Z,101526.28
2022-12-01T14:12:11.928Z,101521.31
2022-12-01T14:14:41.699Z,101520.81
2022-12-01T14:17:35.046Z,101512.47
2022-12-01T14:20:13.646Z,101510.28
2022-12-01T14:22:46.915Z,101509.75
2022-12-01T14:25:20.473Z,101513.16
2022-12-01T14:27:50.966Z,101513.56
2022-12-01T14:30:39.987Z,101509.44
2022-12-01T14:33:47.646Z,101514.34
2022-12-01T14:36:23.660Z,101519.56
2022-12-01T14:39:03.116Z,101517.25
2022-12-01T14:41:57.581Z,101502.75
2022-12-01T14:44:36.311Z,101542.41
2022-12-01T14:47:21.885Z,101518.28
2022-12-01T14:50:20.845Z,101522.59
2022-12-01T14:52:53.452Z,101499.38
2022-12-01T14:55:24.946Z,101507.06
2022-12-01T14:58:00.793Z,101503.91
2022-12-01T15:00:28.290Z,101507.06
2022-12-01T15:02:57.570Z,101513.75
2022-12-01T15:05:27.575Z,101519.97
2022-12-01T15:08:18.602Z,101515.84
2022-12-01T15:10:57.707Z,101514.91
2022-12-01T15:13:25.073Z,101515.44
2022-12-01T15:16:12.957Z,101510.88
2022-12-01T15:18:40.104Z,101494.41
2022-12-01T15:21:13.263Z,101511.19
2022-12-01T15:24:01.595Z,101519.13
2022-12-01T15:26:47.348Z,101513.41
2022-12-01T15:29:22.459Z,101509.19
2022-12-01T15:31:52.710Z,101518.38
2022-12-01T15:34:28.911Z,101502.00
2022-12-01T15:36:57.241Z,101506.34
2022-12-01T15:39:39.357Z,101506.75
2022-12-01T15:42:06.987Z,101512.13
2022-12-01T15:44:36.528Z,101494.28
2022-12-01T15:47:41.021Z,101504.31
2022-12-01T15:50:33.670Z,101486.59
2022-12-01T15:53:04.302Z,101493.78
2022-12-01T15:55:35.185Z,101506.03
2022-12-01T15:58:07.166Z,101504.47
2022-12-01T16:00:34.908Z,101503.63
2022-12-01T16:03:03.460Z,101522.84
2022-12-01T16:05:32.891Z,101506.16
2022-12-01T16:08:17.426Z,101513.34
2022-12-01T16:10:44.991Z,101486.72
2022-12-01T16:13:43.883Z,101508.16
2022-12-01T16:16:50.060Z,101510.28
2022-12-01T16:19:17.122Z,101472.25
2022-12-01T16:21:54.086Z,101502.75
2022-12-01T16:24:38.046Z,101514.72
2022-12-01T16:27:11.392Z,101511.34
2022-12-01T16:29:56.954Z,101505.22
2022-12-01T16:32:27.605Z,101488.41
2022-12-01T16:34:58.389Z,101522.66
2022-12-01T16:37:27.094Z,101506.56
2022-12-01T16:39:54.703Z,101509.56
2022-12-01T16:42:21.892Z,101494.09
2022-12-01T16:44:50.517Z,101506.13
2022-12-01T16:47:25.703Z,101496.00
2022-12-01T16:49:53.489Z,101491.88
2022-12-01T16:52:44.331Z,101470.66
2022-12-01T16:55:44.160Z,101466.75
2022-12-01T16:58:11.865Z,101463.34
2022-12-01T17:00:39.012Z,101464.31
2022-12-01T17:03:07.338Z,101509.56
2022-12-01T17:05:34.989Z,101487.56
2022-12-01T17:08:04.361Z,101471.25
2022-12-01T17:10:31.950Z,101505.50
2022-12-01T17:12:59.254Z,101435.97
2022-12-01T17:15:27.407Z,101478.38
2022-12-01T17:17:54.949Z,101498.31
2022-12-01T17:20:22.104Z,101422.81
2022-12-01T17:22:51.828Z,101458.16
2022-12-01T17:25:19.152Z,101473.06
2022-12-01T17:27:46.531Z,101481.41
2022-12-01T17:30:14.289Z,101446.88
2022-12-01T17:32:41.298Z,101480.16
2022-12-01T17:35:15.042Z,101472.00
2022-12-01T17:37:42.713Z,101489.38
2022-12-01T17:40:13.921Z,101476.56
2022-12-01T17:42:46.812Z,101466.19
2022-12-01T17:45:18.449Z,101485.22
2022-12-01T17:47:46.009Z,101464.03
2022-12-01T17:50:13.695Z,101488.28
2022-12-01T17:52:41.136Z,101477.81
2022-12-01T17:55:08.926Z,101477.44
2022-12-01T17:57:36.277Z,101473.63
2022-12-01T18:00:09.126Z,101494.72
2022-12-01T18:02:39.054Z,101507.22
2022-12-01T18:05:07.040Z,101476.16
2022-12-01T18:07:34.394Z,101458.94
2022-12-01T18:10:01.972Z,101449.09
2022-12-01T18:12:30.637Z,101478.38
2022-12-01T18:14:58.174Z,101508.06
2022-12-01T18:17:27.195Z,101518.22
2022-12-01T18:19:55.066Z,101470.75
2022-12-01T18:22:22.889Z,101484.81
2022-12-01T18:24:50.536Z,101480.81
2022-12-01T18:27:17.825Z,101435.75
2022-12-01T18:29:45.304Z,101490.91
2022-12-01T18:32:12.474Z,101485.94
2022-12-01T18:34:39.875Z,101500.22
2022-12-01T18:37:10.209Z,101468.63
2022-12-01T18:43:32.567Z,101491.06
2022-12-01T18:46:00.563Z,101495.13
2022-12-01T18:48:28.268Z,101490.63
2022-12-01T18:50:59.409Z,101461.59
2022-12-01T18:53:27.235Z,101515.25
2022-12-01T18:56:03.776Z,101464.28
2022-12-01T18:58:32.233Z,101452.66
2022-12-01T19:01:01.007Z,101448.09
2022-12-01T19:03:32.960Z,101507.72
2022-12-01T19:06:00.385Z,101524.19
2022-12-01T19:08:27.830Z,101473.22
2022-12-01T19:11:04.527Z,101484.97
2022-12-01T19:13:34.440Z,101467.19
2022-12-01T19:16:08.573Z,101469.34
2022-12-01T19:18:48.706Z,101463.38
2022-12-01T19:21:21.409Z,101479.22
2022-12-01T19:23:56.255Z,101465.25
2022-12-01T19:26:23.539Z,101500.09
2022-12-01T19:28:51.446Z,101472.03
2022-12-01T19:31:23.014Z,101494.91
2022-12-01T19:33:51.942Z,101506.16
2022-12-01T19:36:24.030Z,101475.50
2022-12-01T19:38:52.491Z,101462.16
2022-12-01T19:41:20.986Z,101426.22
2022-12-01T19:43:48.922Z,101509.69
2022-12-01T19:46:21.664Z,101521.31
2022-12-01T19:48:58.165Z,101462.06
2022-12-01T19:51:29.017Z,101490.22
2022-12-01T19:53:56.694Z,101493.91
2022-12-01T19:56:24.799Z,101510.72
2022-12-01T19:58:52.164Z,101480.31
2022-12-01T20:01:20.446Z,101524.66
2022-12-01T20:03:49.784Z,101488.69
2022-12-01T20:06:25.879Z,101519.75
2022-12-01T20:08:54.581Z,101505.75
2022-12-01T20:11:21.757Z,101517.69
2022-12-01T20:13:49.210Z,101493.69
2022-12-01T20:16:19.649Z,101512.03
2022-12-01T20:18:47.487Z,101534.63
2022-12-01T20:21:20.162Z,101522.50
2022-12-01T20:23:49.958Z,101525.31
2022-12-01T20:26:18.810Z,101535.47
2022-12-01T20:28:48.523Z,101536.41
2022-12-01T20:31:26.657Z,101549.41
2022-12-01T20:33:56.621Z,101540.00
2022-12-01T20:36:24.219Z,101537.38
2022-12-01T20:38:51.292Z,101541.31
2022-12-01T20:41:18.423Z,101527.66
2022-12-01T20:43:46.048Z,101526.72
2022-12-01T20:46:15.033Z,101522.41
2022-12-01T20:48:43.150Z,101545.44
2022-12-01T20:51:13.128Z,101519.47
2022-12-01T20:53:40.770Z,101515.88
2022-12-01T20:56:11.058Z,101522.09
2022-12-01T20:58:39.552Z,101524.53
2022-12-01T21:01:16.082Z,101516.63
2022-12-01T21:03:45.112Z,101521.81
2022-12-01T21:06:14.288Z,101495.09
2022-12-01T21:08:43.734Z,101506.34
2022-12-01T21:11:40.707Z,101495.69
2022-12-01T21:14:15.103Z,101508.63
2022-12-01T21:16:48.356Z,101507.03
2022-12-01T21:19:26.966Z,101475.72
2022-12-01T21:21:54.003Z,101496.63
2022-12-01T21:24:31.971Z,101473.41
2022-12-01T21:27:12.872Z,101477.97
2022-12-01T21:29:43.729Z,101482.19
2022-12-01T21:32:13.686Z,101486.63
2022-12-01T21:34:41.589Z,101494.78
2022-12-01T21:37:21.297Z,101494.09
2022-12-01T21:39:51.116Z,101518.81
2022-12-01T21:42:27.624Z,101504.59
2022-12-01T21:44:56.278Z,101509.75
2022-12-01T21:47:26.084Z,101508.47
2022-12-01T21:49:56.288Z,101502.53
2022-12-01T21:52:30.071Z,101504.69
2022-12-01T21:55:09.419Z,101482.69
2022-12-01T21:57:43.033Z,101506.78
2022-12-01T22:00:27.720Z,101496.22
2022-12-01T22:03:29.706Z,101479.31
2022-12-01T22:06:28.748Z,101495.56
2022-12-01T22:08:58.269Z,101470.84
2022-12-01T22:11:27.935Z,101500.50
2022-12-01T22:14:04.794Z,101494.63
2022-12-01T22:16:34.502Z,101489.56
2022-12-01T22:19:20.994Z,101490.09
2022-12-01T22:21:49.912Z,101490.22
2022-12-01T22:24:39.185Z,101477.75
2022-12-01T22:27:32.433Z,101483.97
2022-12-01T22:30:10.970Z,101489.34
2022-12-01T22:33:11.547Z,101484.09
2022-12-01T22:35:49.329Z,101490.31
2022-12-01T22:38:38.472Z,101471.88
2022-12-01T22:41:09.389Z,101497.38
2022-12-01T22:43:52.116Z,101510.66
2022-12-01T22:46:37.860Z,101465.84
2022-12-01T22:49:17.075Z,101479.13
2022-12-01T22:51:48.793Z,101454.56
2022-12-01T22:54:15.738Z,101480.06
2022-12-01T22:56:48.665Z,101463.22
2022-12-01T22:59:21.550Z,101482.59
2022-12-01T23:02:01.512Z,101473.28
2022-12-01T23:04:31.293Z,101482.50
2022-12-01T23:06:58.274Z,101482.59
2022-12-01T23:09:35.789Z,101494.00
2022-12-01T23:12:27.461Z,101479.22
2022-12-01T23:15:11.205Z,101474.88
2022-12-01T23:17:39.123Z,101463.59
2022-12-01T23:20:25.591Z,101486.41
2022-12-01T23:22:57.408Z,101486.31
2022-12-01T23:25:25.224Z,101497.06
2022-12-01T23:27:54.346Z,101484.63
2022-12-01T23:30:22.830Z,101494.88
2022-12-01T23:33:20.554Z,101481.47
2022-12-01T23:36:00.842Z,101490.25
2022-12-01T23:38:45.539Z,101479.63
2022-12-01T23:41:48.771Z,101489.13
2022-12-01T23:44:23.948Z,101496.94
2022-12-01T23:46:56.990Z,101496.00
2022-12-01T23:49:29.795Z,101477.25
2022-12-01T23:52:00.572Z,101475.94
2022-12-01T23:54:31.007Z,101485.13
2022-12-01T23:57:04.111Z,101491.06
2022-12-01T23:59:31.837Z,101495.91
